KATL/ATL METAR and TAF weather

Enter ICAO airport designator
Station Type Date Time Source
KATL METAR 2018/10/21 05:52 UTC NOAA

KATL 210552Z 32011KT 10SM BKN250 13/08 A3006 RMK AO2 SLP177 T01280083 10161 20128 58001


Station Type Date Time Source
KATL Decoded METAR 2018/10/21 05:52 UTC NOAA

HARTSFIELD-JACKSON ATLANTA, GA, United States (KATL) 33-39N 84-26W
Oct 21, 2018 - 01:52 AM EDT / 2018.10.21 0552 UTC
Wind: from the NW (320 degrees) at 13 MPH (11 KT):0
Visibility: 10 mile(s):0
Sky conditions: mostly cloudy
Temperature: 55.0 F (12.8 C)
Dew Point: 46.9 F (8.3 C)
Relative Humidity: 74%
Pressure (altimeter): 30.06 in. Hg (1017 hPa)
Pressure tendency: 0.00 inches (0.1 hPa) lower than three hours ago
ob: KATL 210552Z 32011KT 10SM BKN250 13/08 A3006 RMK AO2 SLP177 T01280083 10161 20128 58001
cycle: 6

Station Type Date Time Source
KATL TAF 2018/10/21 06:24 UTC NOAA

TAF KATL 210520Z 2106/2212 32014G24KT P6SM SCT250
FM211400 01010G18KT P6SM SKC
FM212000 35006KT P6SM SKC
FM220000 34004KT P6SM FEW250
FM220500 05003KT P6SM SCT250


Example: see airport list